sensor_id;sensor_type;location;lat;lon;timestamp;temperature;humidity
292;DHT22;23311;48.776;9.162;2022-09-17T00:01:31;10.30;95.50
292;DHT22;23311;48.776;9.162;2022-09-17T00:04:01;10.30;95.50
292;DHT22;23311;48.776;9.162;2022-09-17T00:06:32;10.30;95.50
292;DHT22;23311;48.776;9.162;2022-09-17T00:09:02;10.30;95.50
292;DHT22;23311;48.776;9.162;2022-09-17T00:11:32;10.30;95.50
292;DHT22;23311;48.776;9.162;2022-09-17T00:14:02;10.20;95.50
292;DHT22;23311;48.776;9.162;2022-09-17T00:16:31;10.20;95.50
292;DHT22;23311;48.776;9.162;2022-09-17T00:19:02;10.20;95.50
292;DHT22;23311;48.776;9.162;2022-09-17T00:21:31;10.10;95.50
292;DHT22;23311;48.776;9.162;2022-09-17T00:24:02;10.10;95.50
292;DHT22;23311;48.776;9.162;2022-09-17T00:26:31;10.00;95.50
292;DHT22;23311;48.776;9.162;2022-09-17T00:29:00;10.00;95.50
292;DHT22;23311;48.776;9.162;2022-09-17T00:31:29;10.00;95.50
292;DHT22;23311;48.776;9.162;2022-09-17T00:33:58;10.00;95.50
292;DHT22;23311;48.776;9.162;2022-09-17T00:36:28;10.00;95.50
292;DHT22;23311;48.776;9.162;2022-09-17T00:38:58;10.00;95.50
292;DHT22;23311;48.776;9.162;2022-09-17T00:41:29;10.10;95.50
292;DHT22;23311;48.776;9.162;2022-09-17T00:43:59;10.20;95.50
292;DHT22;23311;48.776;9.162;2022-09-17T00:46:31;10.30;95.50
292;DHT22;23311;48.776;9.162;2022-09-17T00:49:03;10.40;95.50
292;DHT22;23311;48.776;9.162;2022-09-17T00:51:35;10.50;95.50
292;DHT22;23311;48.776;9.162;2022-09-17T00:54:06;10.50;95.50
292;DHT22;23311;48.776;9.162;2022-09-17T00:56:37;10.50;95.50
292;DHT22;23311;48.776;9.162;2022-09-17T00:59:07;10.40;95.50
292;DHT22;23311;48.776;9.162;2022-09-17T01:01:35;10.30;95.50
292;DHT22;23311;48.776;9.162;2022-09-17T01:04:04;10.20;95.50
292;DHT22;23311;48.776;9.162;2022-09-17T01:06:36;10.10;95.50
292;DHT22;23311;48.776;9.162;2022-09-17T01:09:21;10.00;95.50
292;DHT22;23311;48.776;9.162;2022-09-17T01:12:05;9.90;95.50
292;DHT22;23311;48.776;9.162;2022-09-17T01:14:45;9.80;95.50
292;DHT22;23311;48.776;9.162;2022-09-17T01:17:22;9.70;95.50
292;DHT22;23311;48.776;9.162;2022-09-17T01:20:19;9.70;95.50
292;DHT22;23311;48.776;9.162;2022-09-17T01:23:01;9.80;95.50
292;DHT22;23311;48.776;9.162;2022-09-17T01:25:43;9.70;95.50
292;DHT22;23311;48.776;9.162;2022-09-17T01:28:30;9.70;95.50
292;DHT22;23311;48.776;9.162;2022-09-17T01:31:33;9.70;95.50
292;DHT22;23311;48.776;9.162;2022-09-17T01:34:12;9.70;95.50
292;DHT22;23311;48.776;9.162;2022-09-17T01:36:58;9.70;95.50
292;DHT22;23311;48.776;9.162;2022-09-17T01:39:33;9.70;95.50
292;DHT22;23311;48.776;9.162;2022-09-17T01:42:13;9.90;95.50
292;DHT22;23311;48.776;9.162;2022-09-17T01:44:49;10.00;95.50
292;DHT22;23311;48.776;9.162;2022-09-17T01:47:22;10.00;95.50
292;DHT22;23311;48.776;9.162;2022-09-17T01:49:54;10.10;95.50
292;DHT22;23311;48.776;9.162;2022-09-17T01:52:24;10.20;95.50
292;DHT22;23311;48.776;9.162;2022-09-17T01:54:56;10.30;95.50
292;DHT22;23311;48.776;9.162;2022-09-17T01:57:29;10.30;95.50
292;DHT22;23311;48.776;9.162;2022-09-17T02:00:03;10.30;95.50
292;DHT22;23311;48.776;9.162;2022-09-17T02:02:37;10.30;95.50
292;DHT22;23311;48.776;9.162;2022-09-17T02:05:10;10.30;95.50
292;DHT22;23311;48.776;9.162;2022-09-17T02:07:41;10.40;95.50
292;DHT22;23311;48.776;9.162;2022-09-17T02:10:16;10.40;95.50
292;DHT22;23311;48.776;9.162;2022-09-17T02:12:48;10.40;95.50
292;DHT22;23311;48.776;9.162;2022-09-17T02:15:21;10.40;95.50
292;DHT22;23311;48.776;9.162;2022-09-17T02:17:56;10.30;95.50
292;DHT22;23311;48.776;9.162;2022-09-17T02:20:32;10.20;95.50
292;DHT22;23311;48.776;9.162;2022-09-17T02:23:07;10.10;95.50
292;DHT22;23311;48.776;9.162;2022-09-17T02:25:42;10.10;95.50
292;DHT22;23311;48.776;9.162;2022-09-17T02:28:14;10.10;95.50
292;DHT22;23311;48.776;9.162;2022-09-17T02:30:44;10.20;95.50
292;DHT22;23311;48.776;9.162;2022-09-17T02:33:14;10.20;95.50
292;DHT22;23311;48.776;9.162;2022-09-17T02:35:42;10.30;95.50
292;DHT22;23311;48.776;9.162;2022-09-17T02:38:12;10.30;95.50
292;DHT22;23311;48.776;9.162;2022-09-17T02:40:46;10.30;95.50
292;DHT22;23311;48.776;9.162;2022-09-17T02:43:23;10.30;95.50
292;DHT22;23311;48.776;9.162;2022-09-17T02:46:07;10.40;95.50
292;DHT22;23311;48.776;9.162;2022-09-17T02:51:44;10.40;95.50
292;DHT22;23311;48.776;9.162;2022-09-17T02:54:20;10.40;95.50
292;DHT22;23311;48.776;9.162;2022-09-17T02:57:00;10.40;95.50
292;DHT22;23311;48.776;9.162;2022-09-17T02:59:33;10.20;95.50
292;DHT22;23311;48.776;9.162;2022-09-17T03:02:08;10.10;95.50
292;DHT22;23311;48.776;9.162;2022-09-17T03:04:41;10.00;95.50
292;DHT22;23311;48.776;9.162;2022-09-17T03:07:10;9.90;95.50
292;DHT22;23311;48.776;9.162;2022-09-17T03:09:40;9.80;95.50
292;DHT22;23311;48.776;9.162;2022-09-17T03:12:10;9.80;95.50
292;DHT22;23311;48.776;9.162;2022-09-17T03:14:38;9.90;95.50
292;DHT22;23311;48.776;9.162;2022-09-17T03:17:07;9.70;95.50
292;DHT22;23311;48.776;9.162;2022-09-17T03:19:35;9.50;95.50
292;DHT22;23311;48.776;9.162;2022-09-17T03:22:04;9.50;95.50
292;DHT22;23311;48.776;9.162;2022-09-17T03:24:32;9.50;95.50
292;DHT22;23311;48.776;9.162;2022-09-17T03:27:00;9.50;95.50
292;DHT22;23311;48.776;9.162;2022-09-17T03:29:28;9.40;95.50
292;DHT22;23311;48.776;9.162;2022-09-17T03:31:56;9.30;95.50
292;DHT22;23311;48.776;9.162;2022-09-17T03:34:25;9.30;95.50
292;DHT22;23311;48.776;9.162;2022-09-17T03:36:53;9.30;95.50
292;DHT22;23311;48.776;9.162;2022-09-17T03:39:22;9.30;95.50
292;DHT22;23311;48.776;9.162;2022-09-17T03:41:50;9.40;95.50
292;DHT22;23311;48.776;9.162;2022-09-17T03:44:18;9.40;95.50
292;DHT22;23311;48.776;9.162;2022-09-17T03:46:48;9.30;95.50
292;DHT22;23311;48.776;9.162;2022-09-17T03:49:16;9.30;95.50
292;DHT22;23311;48.776;9.162;2022-09-17T03:51:44;9.20;95.50
292;DHT22;23311;48.776;9.162;2022-09-17T03:54:12;9.00;95.50
292;DHT22;23311;48.776;9.162;2022-09-17T03:56:42;8.90;95.50
292;DHT22;23311;48.776;9.162;2022-09-17T03:59:10;8.70;95.50
292;DHT22;23311;48.776;9.162;2022-09-17T04:01:38;8.80;95.50
292;DHT22;23311;48.776;9.162;2022-09-17T04:04:06;8.70;95.50
292;DHT22;23311;48.776;9.162;2022-09-17T04:06:34;8.90;95.50
292;DHT22;23311;48.776;9.162;2022-09-17T04:09:02;9.10;95.50
292;DHT22;23311;48.776;9.162;2022-09-17T04:11:31;9.20;95.50
292;DHT22;23311;48.776;9.162;2022-09-17T04:14:00;9.20;95.50
292;DHT22;23311;48.776;9.162;2022-09-17T04:16:28;9.30;95.50
292;DHT22;23311;48.776;9.162;2022-09-17T04:18:56;9.40;95.50
292;DHT22;23311;48.776;9.162;2022-09-17T04:21:25;9.50;95.50
292;DHT22;23311;48.776;9.162;2022-09-17T04:23:53;9.50;95.50
292;DHT22;23311;48.776;9.162;2022-09-17T04:26:21;9.50;95.50
292;DHT22;23311;48.776;9.162;2022-09-17T04:28:49;9.40;95.50
292;DHT22;23311;48.776;9.162;2022-09-17T04:31:18;9.40;95.50
292;DHT22;23311;48.776;9.162;2022-09-17T04:33:48;9.30;95.50
292;DHT22;23311;48.776;9.162;2022-09-17T04:36:16;9.20;95.50
292;DHT22;23311;48.776;9.162;2022-09-17T04:38:47;9.10;95.50
292;DHT22;23311;48.776;9.162;2022-09-17T04:41:15;9.10;95.50
292;DHT22;23311;48.776;9.162;2022-09-17T04:43:43;9.10;95.50
292;DHT22;23311;48.776;9.162;2022-09-17T04:46:12;9.30;95.50
292;DHT22;23311;48.776;9.162;2022-09-17T04:48:41;9.40;95.50
292;DHT22;23311;48.776;9.162;2022-09-17T04:51:09;9.50;95.50
292;DHT22;23311;48.776;9.162;2022-09-17T04:53:37;9.60;95.50
292;DHT22;23311;48.776;9.162;2022-09-17T04:56:06;9.60;95.50
292;DHT22;23311;48.776;9.162;2022-09-17T04:58:34;9.60;95.50
292;DHT22;23311;48.776;9.162;2022-09-17T05:01:02;9.60;95.50
292;DHT22;23311;48.776;9.162;2022-09-17T05:03:30;9.60;95.50
292;DHT22;23311;48.776;9.162;2022-09-17T05:05:59;9.60;95.50
292;DHT22;23311;48.776;9.162;2022-09-17T05:08:27;9.60;95.50
292;DHT22;23311;48.776;9.162;2022-09-17T05:10:55;9.70;95.50
292;DHT22;23311;48.776;9.162;2022-09-17T05:13:23;9.70;95.50
292;DHT22;23311;48.776;9.162;2022-09-17T05:15:53;9.80;95.50
292;DHT22;23311;48.776;9.162;2022-09-17T05:18:22;9.80;95.50
292;DHT22;23311;48.776;9.162;2022-09-17T05:20:50;9.70;95.50
292;DHT22;23311;48.776;9.162;2022-09-17T05:23:19;9.70;95.50
292;DHT22;23311;48.776;9.162;2022-09-17T05:25:47;9.60;95.50
292;DHT22;23311;48.776;9.162;2022-09-17T05:28:16;9.60;95.50
292;DHT22;23311;48.776;9.162;2022-09-17T05:30:44;9.60;95.50
292;DHT22;23311;48.776;9.162;2022-09-17T05:33:12;9.60;95.50
292;DHT22;23311;48.776;9.162;2022-09-17T05:35:40;9.60;95.50
292;DHT22;23311;48.776;9.162;2022-09-17T05:38:09;9.50;95.50
292;DHT22;23311;48.776;9.162;2022-09-17T05:40:39;9.50;95.50
292;DHT22;23311;48.776;9.162;2022-09-17T05:43:08;9.50;95.50
292;DHT22;23311;48.776;9.162;2022-09-17T05:45:37;9.60;95.50
292;DHT22;23311;48.776;9.162;2022-09-17T05:48:08;9.60;95.50
292;DHT22;23311;48.776;9.162;2022-09-17T05:50:36;9.50;95.50
292;DHT22;23311;48.776;9.162;2022-09-17T05:53:05;9.60;95.50
292;DHT22;23311;48.776;9.162;2022-09-17T05:55:33;9.60;95.50
292;DHT22;23311;48.776;9.162;2022-09-17T05:58:09;9.70;95.50
292;DHT22;23311;48.776;9.162;2022-09-17T06:00:38;9.80;95.50
292;DHT22;23311;48.776;9.162;2022-09-17T06:03:07;9.90;95.50
292;DHT22;23311;48.776;9.162;2022-09-17T06:05:35;10.00;95.50
292;DHT22;23311;48.776;9.162;2022-09-17T06:08:03;10.20;95.50
292;DHT22;23311;48.776;9.162;2022-09-17T06:10:31;10.30;95.50
292;DHT22;23311;48.776;9.162;2022-09-17T06:13:02;10.50;95.50
292;DHT22;23311;48.776;9.162;2022-09-17T06:15:32;10.50;95.50
292;DHT22;23311;48.776;9.162;2022-09-17T06:18:00;10.50;95.50
292;DHT22;23311;48.776;9.162;2022-09-17T06:20:28;10.70;95.50
292;DHT22;23311;48.776;9.162;2022-09-17T06:22:56;10.70;95.50
292;DHT22;23311;48.776;9.162;2022-09-17T06:25:25;10.60;95.50
292;DHT22;23311;48.776;9.162;2022-09-17T06:27:53;10.50;95.50
292;DHT22;23311;48.776;9.162;2022-09-17T06:30:21;10.50;95.50
292;DHT22;23311;48.776;9.162;2022-09-17T06:32:50;10.60;95.50
292;DHT22;23311;48.776;9.162;2022-09-17T06:35:18;10.60;95.50
292;DHT22;23311;48.776;9.162;2022-09-17T06:37:46;10.70;95.50
292;DHT22;23311;48.776;9.162;2022-09-17T06:40:14;10.80;95.50
292;DHT22;23311;48.776;9.162;2022-09-17T06:42:43;10.80;95.50
292;DHT22;23311;48.776;9.162;2022-09-17T06:45:11;10.90;95.50
292;DHT22;23311;48.776;9.162;2022-09-17T06:47:42;11.10;95.50
292;DHT22;23311;48.776;9.162;2022-09-17T06:50:12;11.40;95.50
292;DHT22;23311;48.776;9.162;2022-09-17T06:52:47;11.50;95.50
292;DHT22;23311;48.776;9.162;2022-09-17T06:55:15;11.60;95.50
292;DHT22;23311;48.776;9.162;2022-09-17T06:57:43;11.70;95.50
292;DHT22;23311;48.776;9.162;2022-09-17T07:00:12;11.50;95.50
292;DHT22;23311;48.776;9.162;2022-09-17T07:02:40;11.60;95.50
292;DHT22;23311;48.776;9.162;2022-09-17T07:05:09;11.40;95.50
292;DHT22;23311;48.776;9.162;2022-09-17T07:07:38;11.30;95.50
292;DHT22;23311;48.776;9.162;2022-09-17T07:10:07;11.30;95.50
292;DHT22;23311;48.776;9.162;2022-09-17T07:12:39;11.20;95.50
292;DHT22;23311;48.776;9.162;2022-09-17T07:15:13;11.00;95.50
292;DHT22;23311;48.776;9.162;2022-09-17T07:17:42;10.90;95.50
292;DHT22;23311;48.776;9.162;2022-09-17T07:20:11;10.80;95.50
292;DHT22;23311;48.776;9.162;2022-09-17T07:22:40;10.50;95.50
292;DHT22;23311;48.776;9.162;2022-09-17T07:25:09;10.40;95.50
292;DHT22;23311;48.776;9.162;2022-09-17T07:27:37;10.20;95.50
292;DHT22;23311;48.776;9.162;2022-09-17T07:30:06;10.10;95.50
292;DHT22;23311;48.776;9.162;2022-09-17T07:32:34;10.10;95.50
292;DHT22;23311;48.776;9.162;2022-09-17T07:35:02;10.00;95.50
292;DHT22;23311;48.776;9.162;2022-09-17T07:37:30;9.90;95.50
292;DHT22;23311;48.776;9.162;2022-09-17T07:40:00;9.90;95.50
292;DHT22;23311;48.776;9.162;2022-09-17T07:42:28;9.80;95.50
292;DHT22;23311;48.776;9.162;2022-09-17T07:44:58;9.90;95.50
292;DHT22;23311;48.776;9.162;2022-09-17T07:47:28;9.90;95.50
292;DHT22;23311;48.776;9.162;2022-09-17T07:49:56;9.90;95.50
292;DHT22;23311;48.776;9.162;2022-09-17T07:52:24;9.90;95.50
292;DHT22;23311;48.776;9.162;2022-09-17T07:54:53;9.80;95.50
292;DHT22;23311;48.776;9.162;2022-09-17T07:57:22;9.70;95.50
292;DHT22;23311;48.776;9.162;2022-09-17T07:59:50;9.70;95.50
292;DHT22;23311;48.776;9.162;2022-09-17T08:02:18;9.80;95.50
292;DHT22;23311;48.776;9.162;2022-09-17T08:04:50;10.00;95.50
292;DHT22;23311;48.776;9.162;2022-09-17T08:07:18;10.20;95.50
292;DHT22;23311;48.776;9.162;2022-09-17T08:09:46;10.40;95.50
292;DHT22;23311;48.776;9.162;2022-09-17T08:12:15;10.40;95.50
292;DHT22;23311;48.776;9.162;2022-09-17T08:14:46;10.40;95.50
292;DHT22;23311;48.776;9.162;2022-09-17T08:17:14;10.20;95.50
292;DHT22;23311;48.776;9.162;2022-09-17T08:19:43;10.40;95.50
292;DHT22;23311;48.776;9.162;2022-09-17T08:22:11;10.30;95.50
292;DHT22;23311;48.776;9.162;2022-09-17T08:24:39;10.30;95.50
292;DHT22;23311;48.776;9.162;2022-09-17T08:27:08;10.50;95.50
292;DHT22;23311;48.776;9.162;2022-09-17T08:29:36;10.60;95.50
292;DHT22;23311;48.776;9.162;2022-09-17T08:32:05;10.60;95.50
292;DHT22;23311;48.776;9.162;2022-09-17T08:34:33;10.80;95.50
292;DHT22;23311;48.776;9.162;2022-09-17T08:37:05;10.90;95.50
292;DHT22;23311;48.776;9.162;2022-09-17T08:39:34;11.10;95.50
292;DHT22;23311;48.776;9.162;2022-09-17T08:42:08;11.10;95.50
292;DHT22;23311;48.776;9.162;2022-09-17T08:44:40;11.20;95.50
292;DHT22;23311;48.776;9.162;2022-09-17T08:47:15;11.30;95.50
292;DHT22;23311;48.776;9.162;2022-09-17T08:49:48;11.60;95.50
292;DHT22;23311;48.776;9.162;2022-09-17T08:52:29;11.80;95.50
292;DHT22;23311;48.776;9.162;2022-09-17T08:55:06;11.80;95.50
292;DHT22;23311;48.776;9.162;2022-09-17T08:57:47;11.90;95.50
292;DHT22;23311;48.776;9.162;2022-09-17T09:00:18;12.10;95.50
292;DHT22;23311;48.776;9.162;2022-09-17T09:03:02;12.30;95.50
292;DHT22;23311;48.776;9.162;2022-09-17T09:05:39;12.80;95.50
292;DHT22;23311;48.776;9.162;2022-09-17T09:08:16;12.60;95.50
292;DHT22;23311;48.776;9.162;2022-09-17T09:10:49;12.80;95.50
292;DHT22;23311;48.776;9.162;2022-09-17T09:13:23;13.10;95.50
292;DHT22;23311;48.776;9.162;2022-09-17T09:15:57;13.60;95.50
292;DHT22;23311;48.776;9.162;2022-09-17T09:18:29;13.70;95.50
292;DHT22;23311;48.776;9.162;2022-09-17T09:21:05;13.30;95.50
292;DHT22;23311;48.776;9.162;2022-09-17T09:23:44;13.10;95.50
292;DHT22;23311;48.776;9.162;2022-09-17T09:26:17;13.00;95.50
292;DHT22;23311;48.776;9.162;2022-09-17T09:28:58;13.10;95.50
292;DHT22;23311;48.776;9.162;2022-09-17T09:31:38;12.80;95.50
292;DHT22;23311;48.776;9.162;2022-09-17T09:34:11;13.00;95.50
292;DHT22;23311;48.776;9.162;2022-09-17T09:36:39;13.10;95.50
292;DHT22;23311;48.776;9.162;2022-09-17T09:39:14;13.00;95.50
292;DHT22;23311;48.776;9.162;2022-09-17T09:41:47;13.00;95.50
292;DHT22;23311;48.776;9.162;2022-09-17T09:44:16;13.20;95.50
292;DHT22;23311;48.776;9.162;2022-09-17T09:49:50;12.90;95.50
292;DHT22;23311;48.776;9.162;2022-09-17T09:52:32;13.00;95.50
292;DHT22;23311;48.776;9.162;2022-09-17T09:55:19;13.00;95.50
292;DHT22;23311;48.776;9.162;2022-09-17T09:58:19;12.80;95.50
292;DHT22;23311;48.776;9.162;2022-09-17T10:00:50;12.90;95.50
292;DHT22;23311;48.776;9.162;2022-09-17T10:03:21;12.70;95.50
292;DHT22;23311;48.776;9.162;2022-09-17T10:05:56;12.80;95.50
292;DHT22;23311;48.776;9.162;2022-09-17T10:08:24;12.90;95.50
292;DHT22;23311;48.776;9.162;2022-09-17T10:10:55;13.30;95.20
292;DHT22;23311;48.776;9.162;2022-09-17T10:13:25;13.90;94.00
292;DHT22;23311;48.776;9.162;2022-09-17T10:15:53;14.20;92.50
292;DHT22;23311;48.776;9.162;2022-09-17T10:18:22;14.50;91.60
292;DHT22;23311;48.776;9.162;2022-09-17T10:20:58;14.60;90.50
292;DHT22;23311;48.776;9.162;2022-09-17T10:23:29;15.20;89.30
292;DHT22;23311;48.776;9.162;2022-09-17T10:26:00;15.60;86.80
292;DHT22;23311;48.776;9.162;2022-09-17T10:28:47;16.70;83.70
292;DHT22;23311;48.776;9.162;2022-09-17T10:31:15;17.10;82.40
292;DHT22;23311;48.776;9.162;2022-09-17T10:33:52;17.20;82.00
292;DHT22;23311;48.776;9.162;2022-09-17T10:36:41;16.00;83.10
292;DHT22;23311;48.776;9.162;2022-09-17T10:39:32;16.40;84.10
292;DHT22;23311;48.776;9.162;2022-09-17T10:42:02;15.90;84.30
292;DHT22;23311;48.776;9.162;2022-09-17T10:44:34;16.10;83.70
292;DHT22;23311;48.776;9.162;2022-09-17T10:47:05;16.10;83.10
292;DHT22;23311;48.776;9.162;2022-09-17T10:49:37;16.00;83.90
292;DHT22;23311;48.776;9.162;2022-09-17T10:52:17;15.70;84.10
292;DHT22;23311;48.776;9.162;2022-09-17T10:55:07;14.60;85.40
292;DHT22;23311;48.776;9.162;2022-09-17T10:57:51;14.90;86.40
292;DHT22;23311;48.776;9.162;2022-09-17T11:00:23;15.80;84.20
292;DHT22;23311;48.776;9.162;2022-09-17T11:03:24;16.80;81.80
292;DHT22;23311;48.776;9.162;2022-09-17T11:06:34;16.10;81.00
292;DHT22;23311;48.776;9.162;2022-09-17T11:09:14;15.50;82.20
292;DHT22;23311;48.776;9.162;2022-09-17T11:11:52;15.90;82.90
292;DHT22;23311;48.776;9.162;2022-09-17T11:14:36;16.70;81.30
292;DHT22;23311;48.776;9.162;2022-09-17T11:17:12;17.20;80.50
292;DHT22;23311;48.776;9.162;2022-09-17T11:19:54;17.00;80.20
292;DHT22;23311;48.776;9.162;2022-09-17T11:22:31;16.60;80.00
292;DHT22;23311;48.776;9.162;2022-09-17T11:25:23;16.30;80.50
292;DHT22;23311;48.776;9.162;2022-09-17T11:28:03;16.10;80.80
292;DHT22;23311;48.776;9.162;2022-09-17T11:30:42;16.00;80.30
292;DHT22;23311;48.776;9.162;2022-09-17T11:33:38;15.90;80.20
292;DHT22;23311;48.776;9.162;2022-09-17T11:36:12;16.50;79.30
292;DHT22;23311;48.776;9.162;2022-09-17T11:38:45;16.20;79.60
292;DHT22;23311;48.776;9.162;2022-09-17T11:41:19;16.30;80.00
292;DHT22;23311;48.776;9.162;2022-09-17T11:43:52;17.50;78.00
292;DHT22;23311;48.776;9.162;2022-09-17T11:46:28;18.70;75.20
292;DHT22;23311;48.776;9.162;2022-09-17T11:49:00;18.10;73.80
292;DHT22;23311;48.776;9.162;2022-09-17T11:51:31;18.20;74.40
292;DHT22;23311;48.776;9.162;2022-09-17T11:54:05;18.70;73.60
292;DHT22;23311;48.776;9.162;2022-09-17T11:56:40;19.60;71.20
292;DHT22;23311;48.776;9.162;2022-09-17T11:59:13;19.50;71.00
292;DHT22;23311;48.776;9.162;2022-09-17T12:01:45;17.90;73.10
292;DHT22;23311;48.776;9.162;2022-09-17T12:04:26;17.30;74.40
292;DHT22;23311;48.776;9.162;2022-09-17T12:07:00;16.80;76.30
292;DHT22;23311;48.776;9.162;2022-09-17T12:09:32;16.70;76.70
292;DHT22;23311;48.776;9.162;2022-09-17T12:12:07;16.90;76.60
292;DHT22;23311;48.776;9.162;2022-09-17T12:15:01;16.20;78.30
292;DHT22;23311;48.776;9.162;2022-09-17T12:17:36;15.30;84.00
292;DHT22;23311;48.776;9.162;2022-09-17T12:20:15;14.70;87.20
292;DHT22;23311;48.776;9.162;2022-09-17T12:22:50;14.30;90.20
292;DHT22;23311;48.776;9.162;2022-09-17T12:25:21;14.10;91.40
292;DHT22;23311;48.776;9.162;2022-09-17T12:27:55;14.00;91.90
292;DHT22;23311;48.776;9.162;2022-09-17T12:30:30;14.00;92.90
292;DHT22;23311;48.776;9.162;2022-09-17T12:33:08;13.80;91.70
292;DHT22;23311;48.776;9.162;2022-09-17T12:36:07;13.90;89.70
292;DHT22;23311;48.776;9.162;2022-09-17T12:39:01;14.60;88.90
292;DHT22;23311;48.776;9.162;2022-09-17T12:41:44;15.40;86.80
292;DHT22;23311;48.776;9.162;2022-09-17T12:44:35;15.60;84.70
292;DHT22;23311;48.776;9.162;2022-09-17T12:50:19;13.80;89.60
292;DHT22;23311;48.776;9.162;2022-09-17T12:53:14;13.10;93.50
292;DHT22;23311;48.776;9.162;2022-09-17T12:55:55;12.70;95.50
292;DHT22;23311;48.776;9.162;2022-09-17T12:58:38;12.60;95.50
292;DHT22;23311;48.776;9.162;2022-09-17T13:01:12;12.60;95.50
292;DHT22;23311;48.776;9.162;2022-09-17T13:03:44;12.60;95.50
292;DHT22;23311;48.776;9.162;2022-09-17T13:06:32;12.50;95.50
292;DHT22;23311;48.776;9.162;2022-09-17T13:09:26;12.30;95.50
292;DHT22;23311;48.776;9.162;2022-09-17T13:12:07;11.80;95.50
292;DHT22;23311;48.776;9.162;2022-09-17T13:14:55;11.40;95.50
292;DHT22;23311;48.776;9.162;2022-09-17T13:17:30;11.30;95.50
292;DHT22;23311;48.776;9.162;2022-09-17T13:20:10;11.40;95.50
292;DHT22;23311;48.776;9.162;2022-09-17T13:22:43;11.60;95.50
292;DHT22;23311;48.776;9.162;2022-09-17T13:25:14;11.80;95.50
292;DHT22;23311;48.776;9.162;2022-09-17T13:27:44;11.70;95.50
292;DHT22;23311;48.776;9.162;2022-09-17T13:30:13;11.70;95.50
292;DHT22;23311;48.776;9.162;2022-09-17T13:32:49;11.90;95.50
292;DHT22;23311;48.776;9.162;2022-09-17T13:35:48;12.10;95.50
292;DHT22;23311;48.776;9.162;2022-09-17T13:38:18;12.20;95.50
292;DHT22;23311;48.776;9.162;2022-09-17T13:40:50;12.60;95.50
292;DHT22;23311;48.776;9.162;2022-09-17T13:43:22;13.00;95.50
292;DHT22;23311;48.776;9.162;2022-09-17T13:46:10;13.50;95.50
292;DHT22;23311;48.776;9.162;2022-09-17T13:48:53;13.60;95.50
292;DHT22;23311;48.776;9.162;2022-09-17T13:51:51;13.90;95.50
292;DHT22;23311;48.776;9.162;2022-09-17T13:54:21;13.90;95.50
292;DHT22;23311;48.776;9.162;2022-09-17T13:57:05;13.80;95.50
292;DHT22;23311;48.776;9.162;2022-09-17T13:59:35;13.90;95.50
292;DHT22;23311;48.776;9.162;2022-09-17T14:02:35;13.90;95.50
292;DHT22;23311;48.776;9.162;2022-09-17T14:05:27;13.90;95.50
292;DHT22;23311;48.776;9.162;2022-09-17T14:11:02;13.90;95.30
292;DHT22;23311;48.776;9.162;2022-09-17T14:13:49;14.10;95.20
292;DHT22;23311;48.776;9.162;2022-09-17T14:16:45;13.90;94.70
292;DHT22;23311;48.776;9.162;2022-09-17T14:19:29;13.90;95.10
292;DHT22;23311;48.776;9.162;2022-09-17T14:22:07;13.90;94.10
292;DHT22;23311;48.776;9.162;2022-09-17T14:24:45;13.90;93.70
292;DHT22;23311;48.776;9.162;2022-09-17T14:27:35;13.90;94.00
292;DHT22;23311;48.776;9.162;2022-09-17T14:30:14;13.80;94.00
292;DHT22;23311;48.776;9.162;2022-09-17T14:32:48;13.80;94.50
292;DHT22;23311;48.776;9.162;2022-09-17T14:35:25;13.90;94.30
292;DHT22;23311;48.776;9.162;2022-09-17T14:37:59;13.90;93.70
292;DHT22;23311;48.776;9.162;2022-09-17T14:40:30;13.80;94.20
292;DHT22;23311;48.776;9.162;2022-09-17T14:43:01;13.80;93.40
292;DHT22;23311;48.776;9.162;2022-09-17T14:45:31;14.30;93.90
292;DHT22;23311;48.776;9.162;2022-09-17T14:48:26;14.90;91.50
292;DHT22;23311;48.776;9.162;2022-09-17T14:51:22;15.00;90.70
292;DHT22;23311;48.776;9.162;2022-09-17T14:54:17;14.60;90.30
292;DHT22;23311;48.776;9.162;2022-09-17T14:56:57;14.60;90.80
292;DHT22;23311;48.776;9.162;2022-09-17T14:59:46;14.60;90.50
292;DHT22;23311;48.776;9.162;2022-09-17T15:02:27;14.70;90.70
292;DHT22;23311;48.776;9.162;2022-09-17T15:04:56;14.90;90.40
292;DHT22;23311;48.776;9.162;2022-09-17T15:07:24;14.60;91.30
292;DHT22;23311;48.776;9.162;2022-09-17T15:10:06;14.50;90.80
292;DHT22;23311;48.776;9.162;2022-09-17T15:12:34;14.30;91.10
292;DHT22;23311;48.776;9.162;2022-09-17T15:15:04;14.20;91.70
292;DHT22;23311;48.776;9.162;2022-09-17T15:17:33;14.10;91.90
292;DHT22;23311;48.776;9.162;2022-09-17T15:20:04;14.10;92.20
292;DHT22;23311;48.776;9.162;2022-09-17T15:22:36;14.20;92.20
292;DHT22;23311;48.776;9.162;2022-09-17T15:25:09;14.20;91.50
292;DHT22;23311;48.776;9.162;2022-09-17T15:27:42;14.10;91.70
292;DHT22;23311;48.776;9.162;2022-09-17T15:30:14;14.10;91.60
292;DHT22;23311;48.776;9.162;2022-09-17T15:32:47;14.10;91.50
292;DHT22;23311;48.776;9.162;2022-09-17T15:35:19;13.90;91.40
292;DHT22;23311;48.776;9.162;2022-09-17T15:37:48;14.00;91.90
292;DHT22;23311;48.776;9.162;2022-09-17T15:40:39;14.00;92.00
292;DHT22;23311;48.776;9.162;2022-09-17T15:43:23;14.10;91.10
292;DHT22;23311;48.776;9.162;2022-09-17T15:45:53;14.00;90.50
292;DHT22;23311;48.776;9.162;2022-09-17T15:48:33;13.90;90.60
292;DHT22;23311;48.776;9.162;2022-09-17T15:51:02;13.70;91.60
292;DHT22;23311;48.776;9.162;2022-09-17T15:53:35;13.80;91.70
292;DHT22;23311;48.776;9.162;2022-09-17T15:56:07;14.00;91.30
292;DHT22;23311;48.776;9.162;2022-09-17T15:58:51;14.40;90.10
292;DHT22;23311;48.776;9.162;2022-09-17T16:01:50;14.00;90.30
292;DHT22;23311;48.776;9.162;2022-09-17T16:04:24;13.90;91.10
292;DHT22;23311;48.776;9.162;2022-09-17T16:06:58;13.70;91.50
292;DHT22;23311;48.776;9.162;2022-09-17T16:09:38;13.50;91.50
292;DHT22;23311;48.776;9.162;2022-09-17T16:12:11;13.40;91.30
292;DHT22;23311;48.776;9.162;2022-09-17T16:14:46;13.40;91.50
292;DHT22;23311;48.776;9.162;2022-09-17T16:17:24;13.40;91.40
292;DHT22;23311;48.776;9.162;2022-09-17T16:19:54;13.40;91.60
292;DHT22;23311;48.776;9.162;2022-09-17T16:22:23;13.60;91.30
292;DHT22;23311;48.776;9.162;2022-09-17T16:24:52;14.00;90.30
292;DHT22;23311;48.776;9.162;2022-09-17T16:27:23;14.40;89.20
292;DHT22;23311;48.776;9.162;2022-09-17T16:29:59;14.60;88.40
292;DHT22;23311;48.776;9.162;2022-09-17T16:32:28;14.90;87.80
292;DHT22;23311;48.776;9.162;2022-09-17T16:34:56;15.10;87.10
292;DHT22;23311;48.776;9.162;2022-09-17T16:37:25;15.10;87.20
292;DHT22;23311;48.776;9.162;2022-09-17T16:39:53;14.60;87.90
292;DHT22;23311;48.776;9.162;2022-09-17T16:42:22;14.30;89.20
292;DHT22;23311;48.776;9.162;2022-09-17T16:44:50;14.00;90.10
292;DHT22;23311;48.776;9.162;2022-09-17T16:47:18;13.90;90.60
292;DHT22;23311;48.776;9.162;2022-09-17T16:49:46;13.80;90.90
292;DHT22;23311;48.776;9.162;2022-09-17T16:52:15;13.60;91.30
292;DHT22;23311;48.776;9.162;2022-09-17T16:54:48;13.50;91.60
292;DHT22;23311;48.776;9.162;2022-09-17T16:57:17;13.50;92.10
292;DHT22;23311;48.776;9.162;2022-09-17T16:59:46;13.40;92.60